Terminal Aerodrome Forecast
Issued by NWS

Home | Current Version | Previous Version | Text Only | Print | Product List | Glossary On
Versions: 1 2 3 4 5 6 7 8 9 10 11 12 13 14 15 16 17
000
FTUS45 KRIW 191559 AAA
TAFJAC
TAF AMD
KJAC 191559Z 1916/2012 20015KT P6SM -SHRA SCT025 BKN040
      WS015/23040KT
     FM191900 19014G20KT 1 1/2SM -SN SCT007 OVC017 WS012/23035KT
     FM200200 21009KT 3SM -SN SCT013 OVC022
      AMD LTD TO CLD VIS AND WIND=

USA.gov is the U.S. government's official web portal to all federal, state and local government web resources and services.